Time;durP1;ratioP1;P1;durP2;ratioP2;P2;SDS_P1;SDS_P2;PMS_P1;PMS_P2;Temp;Humidity;BMP_temperature;BMP_pressure;BME280_temperature;BME280_humidity;BME280_pressure;Samples;Min_cycle;Max_cycle;Signal;HPM_P1;HPM_P2
2021/11/09 00:00:19;;;;;;;29.37;17.07;;;;;;;14.14;64.11;100744.06;5072843;28;20492;-72
2021/11/09 00:02:47;;;;;;;33.00;17.40;;;;;;;13.82;64.26;100709.09;5108097;28;20078;-67
2021/11/09 00:05:17;;;;;;;37.23;17.73;;;;;;;13.96;64.57;100740.09;5110033;28;20451;-68
2021/11/09 00:07:49;;;;;;;34.83;18.10;;;;;;;13.87;64.39;100728.66;5091454;28;20484;-65
2021/11/09 00:10:17;;;;;;;34.43;17.20;;;;;;;13.99;64.28;100742.28;5098436;28;20056;-66
2021/11/09 00:12:52;;;;;;;33.53;16.93;;;;;;;13.87;64.41;100728.66;5098524;28;20122;-67
2021/11/09 00:15:21;;;;;;;37.60;19.53;;;;;;;13.84;64.75;100734.88;5088142;28;20044;-61
2021/11/09 00:17:51;;;;;;;30.17;16.98;;;;;;;13.78;64.85;100733.28;5073703;28;20052;-65
2021/11/09 00:20:21;;;;;;;31.45;17.58;;;;;;;13.80;64.82;100733.78;5071312;28;20049;-65
2021/11/09 00:22:49;;;;;;;38.55;18.63;;;;;;;13.85;64.41;100728.13;5076283;28;20081;-64
2021/11/09 00:25:17;;;;;;;32.47;17.67;;;;;;;13.71;63.93;100697.13;5072032;28;20052;-65
2021/11/09 00:27:45;;;;;;;35.17;17.90;;;;;;;13.91;63.95;100729.75;5066161;28;20052;-65
2021/11/09 00:30:14;;;;;;;35.53;18.13;;;;;;;13.92;63.89;100730.59;5087627;28;20040;-66
2021/11/09 00:32:44;;;;;;;35.47;19.50;;;;;;;13.87;63.79;100716.59;5080515;28;20041;-63
2021/11/09 00:35:14;;;;;;;38.37;21.27;;;;;;;13.94;63.61;100725.50;5073174;28;20036;-63
2021/11/09 00:37:43;;;;;;;41.75;20.00;;;;;;;13.98;63.62;100718.13;5052667;28;20099;-64
2021/11/09 00:40:12;;;;;;;30.08;18.95;;;;;;;14.02;63.87;100729.59;5054842;28;20063;-60
2021/11/09 00:42:40;;;;;;;34.30;18.60;;;;;;;14.10;63.73;100726.16;5073150;28;20099;-60
2021/11/09 00:45:09;;;;;;;42.33;20.90;;;;;;;14.23;63.70;100720.63;5076099;28;20476;-60
2021/11/09 00:47:40;;;;;;;30.17;18.83;;;;;;;14.25;63.02;100711.06;5074639;28;20052;-66
2021/11/09 00:50:10;;;;;;;30.90;18.27;;;;;;;14.40;62.53;100722.94;5073192;28;20041;-66
2021/11/09 00:52:38;;;;;;;32.97;19.85;;;;;;;14.34;62.40;100710.09;5078897;28;20041;-65
2021/11/09 00:55:06;;;;;;;35.13;18.90;;;;;;;14.51;62.49;100717.22;5076646;28;20400;-67
2021/11/09 00:57:33;;;;;;;30.03;17.80;;;;;;;14.61;62.30;100719.88;5073212;28;20103;-68
2021/11/09 01:00:01;;;;;;;32.50;19.50;;;;;;;14.59;61.92;100705.28;5073941;28;20051;-70
2021/11/09 01:02:27;;;;;;;33.00;17.60;;;;;;;14.68;61.47;100715.53;5074403;28;20044;-69
2021/11/09 01:04:55;;;;;;;36.83;20.07;;;;;;;14.64;61.13;100722.09;5072876;28;20049;-67
2021/11/09 01:07:22;;;;;;;32.10;18.40;;;;;;;14.62;61.50;100730.78;5073998;28;20066;-66
2021/11/09 01:09:49;;;;;;;33.20;17.83;;;;;;;14.52;61.71;100713.25;5074462;28;20045;-69
2021/11/09 01:12:16;;;;;;;33.83;18.60;;;;;;;14.62;61.89;100729.97;5073284;28;20076;-67
2021/11/09 01:14:43;;;;;;;32.27;17.83;;;;;;;14.63;61.68;100728.81;5075076;28;20041;-68
2021/11/09 01:17:11;;;;;;;32.40;17.90;;;;;;;14.58;61.63;100714.84;5067946;28;20060;-66
2021/11/09 01:19:38;;;;;;;36.80;19.30;;;;;;;14.62;61.47;100722.38;5076555;28;20052;-67
2021/11/09 01:22:06;;;;;;;34.67;18.13;;;;;;;14.67;61.38;100718.66;5072895;28;20044;-64
2021/11/09 01:24:34;;;;;;;30.87;19.93;;;;;;;14.65;61.15;100726.56;5077799;28;20447;-65
2021/11/09 01:27:01;;;;;;;32.07;16.93;;;;;;;14.63;60.98;100724.06;5076756;28;20487;-64
2021/11/09 01:29:28;;;;;;;29.60;16.20;;;;;;;14.58;61.46;100709.25;5080700;28;20121;-63
2021/11/09 01:31:56;;;;;;;32.60;17.53;;;;;;;14.57;61.42;100699.13;5075546;28;20049;-63
2021/11/09 01:34:23;;;;;;;28.60;15.67;;;;;;;14.37;61.28;100672.97;5073474;28;20456;-61
2021/11/09 01:36:50;;;;;;;37.53;18.60;;;;;;;14.64;61.28;100703.25;5080852;28;20103;-62
2021/11/09 01:39:17;;;;;;;28.53;16.30;;;;;;;14.62;61.45;100710.28;5073279;28;20055;-65
2021/11/09 01:41:44;;;;;;;30.73;16.27;;;;;;;14.66;61.21;100711.34;5072382;28;20040;-61
2021/11/09 01:44:12;;;;;;;33.13;17.57;;;;;;;14.58;61.09;100709.25;5076484;28;20044;-61
2021/11/09 01:46:39;;;;;;;32.93;17.50;;;;;;;14.43;61.43;100711.09;5076330;28;20099;-63
2021/11/09 01:49:07;;;;;;;35.63;17.77;;;;;;;14.29;61.94;100707.38;5075010;28;20094;-62
2021/11/09 01:51:35;;;;;;;30.13;17.77;;;;;;;14.16;62.20;100708.94;5072330;28;20045;-62
2021/11/09 01:54:03;;;;;;;27.07;16.77;;;;;;;14.12;62.19;100702.25;5067644;28;20511;-61
2021/11/09 01:56:31;;;;;;;34.13;17.47;;;;;;;14.12;62.25;100695.78;5072834;28;20041;-63
2021/11/09 01:58:59;;;;;;;33.47;17.93;;;;;;;14.05;62.04;100686.88;5072055;28;20099;-64
2021/11/09 02:01:28;;;;;;;31.00;17.03;;;;;;;14.11;62.18;100691.31;5072294;28;20044;-62
2021/11/09 02:03:59;;;;;;;30.17;16.80;;;;;;;14.06;62.36;100689.41;5068497;28;20040;-63
2021/11/09 02:06:27;;;;;;;30.63;17.37;;;;;;;14.04;62.55;100688.03;5079493;28;20047;-62
2021/11/09 02:09:08;;;;;;;33.10;16.63;;;;;;;13.92;63.02;100689.31;5066581;28;20575;-61
2021/11/09 02:11:36;;;;;;;35.50;18.20;;;;;;;13.86;63.48;100682.06;5072699;28;20048;-63
2021/11/09 02:14:04;;;;;;;31.80;18.37;;;;;;;13.71;63.59;100662.63;5074701;28;20045;-63
2021/11/09 02:16:32;;;;;;;34.07;19.00;;;;;;;13.76;63.64;100682.19;5072420;28;20428;-65
2021/11/09 02:18:59;;;;;;;26.70;16.40;;;;;;;13.72;63.85;100675.53;5072667;28;20048;-63
2021/11/09 02:21:27;;;;;;;30.10;16.47;;;;;;;13.72;63.92;100670.75;5068258;28;20107;-62
2021/11/09 02:23:53;;;;;;;29.33;15.33;;;;;;;13.72;63.96;100673.53;5074020;28;20047;-71
2021/11/09 02:26:23;;;;;;;31.40;17.40;;;;;;;13.69;64.11;100664.88;5070905;28;20044;-60
2021/11/09 02:28:54;;;;;;;33.53;17.95;;;;;;;13.65;64.21;100658.22;5075377;28;20052;-59
2021/11/09 02:31:22;;;;;;;28.20;16.37;;;;;;;13.73;63.96;100663.97;5057999;28;20044;-61
2021/11/09 02:33:49;;;;;;;30.90;17.37;;;;;;;13.80;63.74;100663.63;5073792;28;20044;-60
2021/11/09 02:36:18;;;;;;;27.77;16.00;;;;;;;13.86;63.58;100656.81;5075707;28;20075;-64
2021/11/09 02:38:46;;;;;;;28.73;16.17;;;;;;;14.06;63.06;100655.72;5073781;28;20075;-69
2021/11/09 02:41:14;;;;;;;33.27;19.17;;;;;;;14.19;62.50;100668.19;5071547;28;20048;-60
2021/11/09 02:43:41;;;;;;;27.60;17.30;;;;;;;14.23;62.06;100663.63;5072938;28;20090;-61
2021/11/09 02:49:03;;;;;;;28.87;17.17;;;;;;;14.26;61.81;100665.00;5074730;28;20522;-59
2021/11/09 02:51:36;;;;;;;32.22;14.55;;;;;;;14.27;62.05;100667.50;5071915;28;20047;-59
2021/11/09 02:54:10;;;;;;;34.50;16.30;;;;;;;14.25;62.05;100666.13;5080943;28;20098;-64
2021/11/09 02:56:50;;;;;;;24.63;13.90;;;;;;;14.15;62.28;100653.91;5081888;28;20044;-64
2021/11/09 03:04:25;;;;;;;24.13;12.90;;;;;;;14.28;61.72;100660.72;5065436;28;20257;-63
2021/11/09 03:07:01;;;;;;;33.93;16.67;;;;;;;14.26;61.46;100660.22;5071729;28;20127;-63
2021/11/09 03:12:05;;;;;;;28.57;16.07;;;;;;;14.22;61.48;100653.50;5071038;28;20144;-65
2021/11/09 03:14:33;;;;;;;35.53;18.40;;;;;;;14.19;61.39;100654.97;5069656;28;20139;-63
2021/11/09 03:17:05;;;;;;;32.60;16.83;;;;;;;14.13;61.14;100650.56;5075493;28;20554;-62
2021/11/09 03:44:20;;;;;;;16.90;9.93;;;;;;;14.20;62.46;100641.75;5076833;28;20551;-65
2021/11/09 03:46:54;;;;;;;19.87;11.00;;;;;;;14.08;62.30;100602.03;5071779;28;20053;-66
2021/11/09 03:49:23;;;;;;;23.80;12.97;;;;;;;14.35;61.69;100627.47;5075503;28;20568;-65
2021/11/09 03:51:51;;;;;;;18.73;10.07;;;;;;;14.40;61.83;100635.84;5074745;28;20063;-65
2021/11/09 03:54:25;;;;;;;17.00;8.90;;;;;;;14.35;62.03;100643.50;5074168;28;20328;-65
2021/11/09 03:57:06;;;;;;;22.37;11.07;;;;;;;14.18;62.43;100632.78;5071132;28;20045;-64
2021/11/09 04:05:07;;;;;;;23.30;13.03;;;;;;;14.27;61.97;100639.41;5046778;28;20135;-63
2021/11/09 04:07:53;;;;;;;19.87;11.90;;;;;;;14.25;61.71;100633.25;5071327;28;20084;-63
2021/11/09 04:10:30;;;;;;;19.63;12.93;;;;;;;14.32;61.34;100647.75;5069781;28;20099;-66
2021/11/09 04:13:04;;;;;;;22.90;12.73;;;;;;;14.28;61.20;100643.06;5053153;28;20143;-67
2021/11/09 04:18:11;;;;;;;18.98;10.93;;;;;;;14.19;61.17;100629.69;5087376;28;20072;-67
2021/11/09 04:29:37;;;;;;;14.70;9.13;;;;;;;14.05;62.18;100644.78;5092163;28;20130;-71
2021/11/09 05:10:30;;;;;;;13.80;9.43;;;;;;;13.83;62.80;100636.94;5098138;28;20078;-66
2021/11/09 05:12:57;;;;;;;14.80;8.03;;;;;;;13.91;63.03;100664.31;5094326;28;20131;-66
2021/11/09 05:15:24;;;;;;;18.77;10.10;;;;;;;13.90;63.12;100660.69;5092837;28;20151;-65
2021/11/09 05:17:51;;;;;;;15.90;8.47;;;;;;;13.85;63.29;100655.16;5096630;28;20123;-66
2021/11/09 05:20:18;;;;;;;14.73;9.07;;;;;;;13.89;63.41;100664.63;5098968;28;20067;-69
2021/11/09 05:22:45;;;;;;;14.43;6.90;;;;;;;13.90;63.40;100657.03;5093686;28;20517;-68
2021/11/09 05:25:13;;;;;;;12.80;6.47;;;;;;;13.74;63.24;100625.53;5100198;28;20131;-68
2021/11/09 05:27:41;;;;;;;15.87;7.80;;;;;;;13.94;63.12;100658.13;5094110;28;20079;-65
2021/11/09 05:30:08;;;;;;;14.03;7.60;;;;;;;13.96;63.05;100670.72;5081057;28;20487;-60
2021/11/09 05:32:35;;;;;;;14.23;8.53;;;;;;;13.95;62.83;100659.81;5099658;28;20468;-60
2021/11/09 05:35:03;;;;;;;13.53;7.57;;;;;;;13.87;62.99;100652.84;5097913;28;20127;-59
2021/11/09 05:37:36;;;;;;;14.37;8.00;;;;;;;13.85;63.01;100657.13;5094094;28;20078;-61
2021/11/09 05:40:06;;;;;;;13.63;7.27;;;;;;;13.96;63.09;100662.28;5086910;28;20131;-68
2021/11/09 05:42:33;;;;;;;13.98;8.27;;;;;;;13.94;62.85;100670.16;5097858;28;20122;-65
2021/11/09 05:45:00;;;;;;;12.73;7.77;;;;;;;13.90;63.04;100654.25;5080455;28;20128;-59
2021/11/09 05:47:28;;;;;;;12.23;8.27;;;;;;;13.76;63.38;100654.13;5092732;28;20082;-63
2021/11/09 05:49:56;;;;;;;16.57;7.43;;;;;;;13.72;63.20;100653.06;5091411;28;20076;-61
2021/11/09 05:52:23;;;;;;;11.67;7.13;;;;;;;13.62;63.13;100653.19;5100780;28;20146;-61
2021/11/09 05:54:50;;;;;;;12.57;7.30;;;;;;;13.65;63.18;100650.63;5096645;28;20147;-64
2021/11/09 05:57:17;;;;;;;13.13;7.63;;;;;;;13.63;63.06;100655.69;5092797;28;20194;-62
2021/11/09 05:59:43;;;;;;;11.43;7.10;;;;;;;13.63;62.97;100657.66;5092247;28;20083;-59
2021/11/09 06:02:11;;;;;;;12.50;7.07;;;;;;;13.59;63.06;100659.41;5100455;28;20094;-65
2021/11/09 06:04:38;;;;;;;11.47;7.50;;;;;;;13.59;63.02;100654.63;5098770;28;20134;-63
2021/11/09 06:07:05;;;;;;;13.87;6.60;;;;;;;13.57;63.14;100654.06;5097509;28;20134;-61
2021/11/09 06:09:33;;;;;;;12.23;6.27;;;;;;;13.57;63.01;100662.47;5083997;28;20043;-64
2021/11/09 06:12:00;;;;;;;11.47;6.07;;;;;;;13.51;63.06;100656.13;5092390;28;20044;-64
2021/11/09 06:14:27;;;;;;;11.37;6.43;;;;;;;13.63;63.12;100660.47;5093477;28;20571;-69
2021/11/09 06:16:57;;;;;;;7.97;4.80;;;;;;;13.69;62.74;100656.47;5092789;28;20512;-68
2021/11/09 06:19:25;;;;;;;7.77;5.10;;;;;;;13.63;62.67;100632.41;5095206;28;20560;-72
2021/11/09 06:21:52;;;;;;;6.87;4.37;;;;;;;13.69;62.75;100646.06;5077583;28;20040;-65
2021/11/09 06:24:20;;;;;;;6.87;4.57;;;;;;;13.69;62.83;100643.28;5095092;28;20067;-66
2021/11/09 06:26:47;;;;;;;10.77;5.23;;;;;;;13.62;62.71;100627.94;5091395;28;20136;-58
2021/11/09 06:29:14;;;;;;;6.90;3.67;;;;;;;13.57;62.92;100627.97;5090753;28;20066;-60
2021/11/09 06:31:42;;;;;;;9.50;5.37;;;;;;;13.68;62.72;100636.00;5098341;28;20071;-59
2021/11/09 06:34:09;;;;;;;10.00;4.27;;;;;;;13.65;63.09;100635.75;5100619;28;20574;-59
2021/11/09 06:36:36;;;;;;;12.37;4.53;;;;;;;13.62;63.03;100648.41;5090483;28;20138;-61
2021/11/09 06:39:06;;;;;;;;;;;;;;;13.55;63.31;100642.31;5093196;28;20076;-60
2021/11/09 06:41:33;;;;;;;9.57;5.50;;;;;;;13.55;62.94;100641.50;5090500;28;19923;-61
2021/11/09 06:44:00;;;;;;;8.77;5.20;;;;;;;13.55;63.01;100638.69;5091538;28;20184;-60
2021/11/09 06:46:28;;;;;;;11.10;6.23;;;;;;;13.54;62.91;100639.78;5094875;28;20059;-60
2021/11/09 06:48:55;;;;;;;10.33;6.00;;;;;;;13.34;62.75;100591.22;5074398;28;20097;-59
2021/11/09 06:51:22;;;;;;;9.43;5.83;;;;;;;13.66;62.70;100643.03;5089017;28;20044;-59
2021/11/09 06:53:49;;;;;;;10.20;5.73;;;;;;;13.78;62.31;100637.84;5088589;28;20071;-59
2021/11/09 06:56:16;;;;;;;19.20;9.80;;;;;;;13.89;61.79;100630.13;5091005;28;20130;-55
2021/11/09 06:58:43;;;;;;;9.73;5.93;;;;;;;14.02;61.47;100642.56;5087161;28;20048;-55
2021/11/09 07:01:10;;;;;;;12.87;7.57;;;;;;;14.04;60.98;100632.72;5095954;28;20055;-55
2021/11/09 07:03:38;;;;;;;16.13;9.03;;;;;;;13.96;60.92;100622.16;5093186;28;20082;-54
2021/11/09 07:06:05;;;;;;;17.80;10.37;;;;;;;14.00;60.69;100631.66;5090880;28;20123;-56
2021/11/09 07:08:33;;;;;;;17.47;10.47;;;;;;;13.95;60.71;100640.97;5091689;28;20048;-55
2021/11/09 07:11:02;;;;;;;18.53;10.47;;;;;;;13.86;60.89;100637.16;5091167;28;20127;-55
2021/11/09 07:13:30;;;;;;;26.80;12.85;;;;;;;13.80;60.83;100632.75;5096605;28;20109;-54
2021/11/09 07:15:58;;;;;;;17.87;9.77;;;;;;;13.72;60.96;100639.88;5096850;28;20097;-55
2021/11/09 07:18:26;;;;;;;16.10;9.10;;;;;;;13.68;61.14;100635.16;5088815;28;20048;-55
2021/11/09 07:20:53;;;;;;;14.37;9.23;;;;;;;13.74;61.26;100639.56;5101973;28;20048;-54
2021/11/09 07:23:20;;;;;;;14.17;9.37;;;;;;;13.78;61.36;100635.03;5099577;28;20539;-56
2021/11/09 07:25:47;;;;;;;16.50;9.63;;;;;;;13.48;61.56;100586.56;5089098;28;20044;-55
2021/11/09 07:28:14;;;;;;;13.70;9.00;;;;;;;13.83;61.60;100634.97;5090110;28;20515;-55
2021/11/09 07:30:46;;;;;;;13.53;8.70;;;;;;;13.88;61.35;100637.72;5094275;28;20130;-54
2021/11/09 07:33:13;;;;;;;15.67;7.93;;;;;;;13.92;61.39;100640.75;5091678;28;20071;-52
2021/11/09 07:35:40;;;;;;;10.97;7.67;;;;;;;14.02;61.32;100639.75;5088289;28;20063;-55
2021/11/09 07:38:07;;;;;;;11.77;7.27;;;;;;;14.21;61.08;100649.88;5089292;28;20131;-53
2021/11/09 07:40:34;;;;;;;14.83;8.53;;;;;;;14.29;60.89;100634.34;5087574;28;20075;-55
2021/11/09 07:43:01;;;;;;;18.93;10.83;;;;;;;14.50;60.87;100650.88;5089274;28;20127;-55
2021/11/09 07:45:28;;;;;;;14.07;8.97;;;;;;;14.58;60.82;100647.41;5091247;28;20471;-55
2021/11/09 07:47:58;;;;;;;16.33;9.40;;;;;;;14.61;60.54;100639.19;5090156;28;20458;-55
2021/11/09 07:50:26;;;;;;;15.27;8.73;;;;;;;14.90;60.58;100652.22;5094019;28;20078;-55
2021/11/09 07:52:57;;;;;;;10.50;6.63;;;;;;;15.07;60.36;100648.81;5098642;28;20123;-56
2021/11/09 07:55:26;;;;;;;12.03;6.90;;;;;;;15.36;60.29;100652.22;5082318;28;20085;-55
2021/11/09 07:57:59;;;;;;;9.70;7.17;;;;;;;15.70;60.30;100656.66;5091163;28;20079;-54
2021/11/09 08:00:35;;;;;;;15.00;8.63;;;;;;;16.10;59.66;100648.50;5089485;28;20123;-55
2021/11/09 08:03:49;;;;;;;15.20;8.50;;;;;;;16.52;59.44;100650.06;5091134;28;20047;-54
2021/11/09 08:08:28;;;;;;;15.00;9.15;;;;;;;17.29;58.34;100651.81;5072238;28;20063;-55
2021/11/09 08:10:55;;;;;;;15.82;10.93;;;;;;;17.49;58.06;100649.59;5089265;28;20476;-54
2021/11/09 08:13:22;;;;;;;16.80;10.65;;;;;;;17.71;57.77;100658.00;5088914;28;20086;-55
2021/11/09 08:15:49;;;;;;;17.75;12.43;;;;;;;18.02;57.04;100656.28;5088016;28;20526;-54
2021/11/09 08:18:16;;;;;;;11.20;7.25;;;;;;;18.40;56.52;100671.53;5079303;28;20483;-53
2021/11/09 08:20:58;;;;;;;19.05;11.07;;;;;;;18.74;55.69;100654.94;5079793;28;20051;-55
2021/11/09 08:23:25;;;;;;;15.65;8.55;;;;;;;19.04;54.97;100665.25;5091589;28;20135;-54
2021/11/09 08:25:53;;;;;;;23.60;12.07;;;;;;;19.51;54.54;100670.13;5091207;28;20079;-55
2021/11/09 08:28:21;;;;;;;16.52;11.00;;;;;;;19.88;53.82;100654.34;5097183;28;20043;-53
2021/11/09 08:30:51;;;;;;;8.02;4.80;;;;;;;20.36;53.04;100675.72;5076368;28;20515;-53
2021/11/09 08:33:19;;;;;;;;;;;;;;;20.71;54.23;100675.50;5095505;28;20113;-54
2021/11/09 08:35:46;;;;;;;10.65;5.15;;;;;;;21.22;52.06;100656.34;5091520;28;20308;-53
2021/11/09 08:38:15;;;;;;;12.15;7.55;;;;;;;21.79;50.89;100652.69;5095124;28;20072;-53
2021/11/09 08:40:43;;;;;;;10.60;5.78;;;;;;;22.51;49.95;100666.44;5095369;28;20118;-54
2021/11/09 08:43:14;;;;;;;4.78;3.85;;;;;;;23.08;48.93;100669.00;5084713;28;20086;-57
2021/11/09 08:46:07;;;;;;;20.27;12.10;;;;;;;23.64;47.88;100671.78;5074292;28;20075;-56
2021/11/09 08:48:39;;;;;;;7.40;4.10;;;;;;;24.21;47.17;100681.00;5089221;28;20060;-57
2021/11/09 08:51:09;;;;;;;6.13;4.35;;;;;;;24.69;45.35;100666.66;5086104;28;20056;-57
2021/11/09 08:53:45;;;;;;;7.45;4.00;;;;;;;25.11;44.76;100665.91;5087059;28;20044;-56
2021/11/09 09:06:54;;;;;;;6.57;3.97;;;;;;;25.34;41.50;100637.41;5102263;28;20047;-55
2021/11/09 09:09:21;;;;;;;4.60;3.03;;;;;;;26.06;40.54;100660.38;5109356;28;20117;-55
2021/11/09 09:11:49;;;;;;;4.70;3.10;;;;;;;26.28;39.38;100664.41;5108981;28;20083;-55
2021/11/09 09:14:18;;;;;;;4.97;3.00;;;;;;;26.55;38.86;100670.16;5096590;28;20093;-56
2021/11/09 09:16:46;;;;;;;6.90;3.55;;;;;;;26.36;37.87;100673.94;5101895;28;20060;-57
2021/11/09 09:19:15;;;;;;;8.38;3.65;;;;;;;26.22;38.07;100658.19;5093708;28;20055;-57
2021/11/09 09:21:48;;;;;;;5.95;3.10;;;;;;;26.11;37.59;100668.63;5080418;28;20121;-57
2021/11/09 09:30:29;;;;;;;5.28;2.92;;;;;;;25.38;36.81;100681.19;5077741;28;20376;-56
2021/11/09 09:57:24;;;;;;;4.70;2.75;;;;;;;24.32;37.51;100653.53;5069187;28;20182;-57
2021/11/09 09:59:52;;;;;;;4.68;2.97;;;;;;;24.71;37.65;100659.34;5099183;28;20152;-56
2021/11/09 10:02:26;;;;;;;7.25;3.33;;;;;;;25.45;36.96;100652.72;5094277;28;20513;-56
2021/11/09 10:05:11;;;;;;;5.60;3.20;;;;;;;26.13;36.75;100654.78;5092084;28;20139;-56
2021/11/09 10:07:47;;;;;;;5.03;3.17;;;;;;;27.03;35.81;100659.75;5092311;28;20488;-55
2021/11/09 10:10:23;;;;;;;3.40;2.92;;;;;;;27.59;34.98;100664.53;5088062;28;20082;-54
2021/11/09 10:12:55;;;;;;;4.47;3.42;;;;;;;27.58;34.28;100671.47;5091575;28;20086;-56
2021/11/09 10:15:26;;;;;;;5.10;2.75;;;;;;;27.35;34.26;100662.19;5086585;28;20079;-56
2021/11/09 10:18:00;;;;;;;3.65;2.90;;;;;;;27.86;34.35;100664.41;5083235;28;20083;-55
2021/11/09 10:20:34;;;;;;;3.45;2.45;;;;;;;28.39;33.74;100661.16;5083700;28;20136;-55
2021/11/09 10:23:06;;;;;;;4.95;3.58;;;;;;;29.17;33.29;100662.84;5066965;28;20076;-55
2021/11/09 10:25:36;;;;;;;5.28;2.97;;;;;;;29.33;32.18;100662.47;5077813;28;20102;-55
2021/11/09 10:28:18;;;;;;;3.30;3.00;;;;;;;29.65;31.63;100657.66;5077061;28;20338;-57
2021/11/09 10:30:48;;;;;;;5.82;3.13;;;;;;;30.03;31.59;100657.28;5084365;28;20567;-57
2021/11/09 10:33:19;;;;;;;4.32;3.13;;;;;;;30.44;30.95;100649.84;5089941;28;20051;-56
2021/11/09 10:35:47;;;;;;;4.47;3.00;;;;;;;30.80;30.46;100652.66;5080665;28;20083;-56
2021/11/09 10:38:15;;;;;;;5.20;2.83;;;;;;;30.98;30.06;100654.66;5083860;28;20136;-55
2021/11/09 10:40:51;;;;;;;5.10;3.22;;;;;;;30.97;30.13;100658.78;5084330;28;20047;-53
2021/11/09 10:43:23;;;;;;;4.88;3.00;;;;;;;31.20;29.64;100653.31;5083698;28;20178;-55
2021/11/09 10:45:49;;;;;;;4.45;3.30;;;;;;;31.50;28.93;100658.53;5082181;28;20048;-55
2021/11/09 10:48:19;;;;;;;6.20;2.92;;;;;;;31.66;29.19;100649.38;5077563;28;20105;-55
2021/11/09 10:50:52;;;;;;;6.97;3.92;;;;;;;31.86;28.58;100641.78;5081998;28;20074;-56
2021/11/09 10:53:44;;;;;;;4.80;3.63;;;;;;;32.06;28.95;100644.94;5077399;28;20219;-55
2021/11/09 11:04:39;;;;;;;7.65;4.32;;;;;;;33.17;27.63;100646.66;5062407;28;20080;-55
2021/11/09 11:07:10;;;;;;;6.20;3.88;;;;;;;33.50;26.48;100632.56;5073842;28;20036;-54
2021/11/09 11:09:42;;;;;;;6.22;3.70;;;;;;;33.98;26.15;100642.97;5070146;28;20060;-55
2021/11/09 11:12:10;;;;;;;7.18;4.30;;;;;;;34.50;25.49;100653.25;5066314;28;20371;-55
2021/11/09 11:14:42;;;;;;;5.28;4.03;;;;;;;34.84;24.61;100633.56;5065440;28;20045;-55
2021/11/09 11:17:12;;;;;;;6.55;3.22;;;;;;;35.10;25.00;100628.06;5083377;28;20143;-56
2021/11/09 11:19:55;;;;;;;8.10;3.88;;;;;;;35.40;24.81;100626.97;5090577;28;20040;-56
2021/11/09 11:22:28;;;;;;;7.00;3.47;;;;;;;35.55;24.46;100619.56;5068868;28;20075;-55
2021/11/09 11:24:57;;;;;;;6.22;4.07;;;;;;;35.86;23.94;100616.31;5092693;28;20048;-55
2021/11/09 11:27:26;;;;;;;;;;;;;;;36.05;25.44;100618.34;5090987;28;20130;-56
2021/11/09 11:29:52;;;;;;;;;;;;;;;36.15;25.82;100616.44;5087941;28;20007;-56
2021/11/09 11:32:22;;;;;;;4.88;4.03;;;;;;;36.16;23.70;100605.63;5089028;28;20007;-55
2021/11/09 11:34:50;;;;;;;6.07;4.25;;;;;;;36.38;23.31;100608.75;5085654;28;20076;-54
2021/11/09 11:37:18;;;;;;;;;;;;;;;36.45;23.08;100609.41;5091017;28;20123;-56
2021/11/09 11:39:48;;;;;;;6.18;3.67;;;;;;;35.49;23.13;100603.94;5078947;28;20090;-56
2021/11/09 11:42:17;;;;;;;7.60;4.43;;;;;;;35.64;23.22;100597.81;5082410;28;20067;-56
2021/11/09 11:44:58;;;;;;;7.00;4.00;;;;;;;36.06;23.57;100596.72;5089060;28;20170;-56
2021/11/09 11:47:25;;;;;;;5.75;3.90;;;;;;;36.38;22.64;100594.22;5084615;28;20052;-56
2021/11/09 11:49:59;;;;;;;5.07;3.97;;;;;;;36.62;22.22;100586.91;5086112;28;20048;-56
2021/11/09 11:52:28;;;;;;;6.55;4.07;;;;;;;36.31;22.47;100583.63;5091889;28;20048;-56
2021/11/09 11:54:59;;;;;;;;;;;;;;;36.66;23.08;100581.00;5073363;28;20094;-55
2021/11/09 11:57:41;;;;;;;5.00;3.60;;;;;;;36.37;22.33;100587.59;5090142;28;19934;-56
2021/11/09 12:00:29;;;;;;;5.43;3.75;;;;;;;35.11;22.37;100578.28;5072842;28;20056;-55
2021/11/09 12:03:01;;;;;;;5.03;4.20;;;;;;;35.12;22.43;100574.09;5076376;28;20040;-55
2021/11/09 12:05:38;;;;;;;5.38;4.75;;;;;;;35.34;22.57;100559.88;5091318;28;20357;-55
2021/11/09 12:08:14;;;;;;;4.72;4.00;;;;;;;35.08;22.34;100553.06;5084353;28;20128;-56
2021/11/09 12:10:52;;;;;;;6.28;4.03;;;;;;;34.97;22.10;100555.34;5072305;28;20429;-55
2021/11/09 12:13:23;;;;;;;6.65;3.97;;;;;;;35.09;22.08;100548.88;5084125;28;20480;-55
2021/11/09 12:15:53;;;;;;;7.30;3.97;;;;;;;35.13;21.86;100540.91;5079940;28;20124;-56
2021/11/09 12:18:39;;;;;;;5.88;4.45;;;;;;;35.37;22.28;100543.66;5081476;28;20048;-54
2021/11/09 12:21:34;;;;;;;4.30;3.53;;;;;;;34.88;21.10;100547.25;5085397;28;20048;-54
2021/11/09 12:24:14;;;;;;;5.47;3.80;;;;;;;33.47;22.52;100517.59;5075333;28;20045;-55
2021/11/09 12:26:48;;;;;;;5.78;4.63;;;;;;;33.38;22.82;100531.84;5081429;28;20459;-57
2021/11/09 12:29:41;;;;;;;5.72;4.25;;;;;;;34.58;22.36;100527.19;5081772;28;20523;-55
2021/11/09 12:32:35;;;;;;;10.32;4.40;;;;;;;34.96;22.16;100510.19;5083545;28;20507;-56
2021/11/09 12:35:04;;;;;;;6.15;4.97;;;;;;;35.59;22.08;100509.09;5079497;28;20087;-56
2021/11/09 12:37:32;;;;;;;;;;;;;;;36.21;21.61;100520.78;5077345;28;20132;-55
2021/11/09 12:40:33;;;;;;;7.22;4.32;;;;;;;35.86;21.68;100517.53;5083458;28;20392;-55
2021/11/09 12:43:22;;;;;;;6.72;3.88;;;;;;;36.33;21.28;100525.00;5067388;28;20131;-56
2021/11/09 12:46:07;;;;;;;9.25;5.07;;;;;;;36.56;21.31;100518.94;5078534;28;20139;-55
2021/11/09 12:48:38;;;;;;;11.50;5.20;;;;;;;36.79;20.47;100517.84;5092589;28;20048;-56
2021/11/09 12:51:11;;;;;;;11.32;4.88;;;;;;;36.52;20.91;100509.50;5082538;28;20065;-56
2021/11/09 12:53:43;;;;;;;9.07;5.07;;;;;;;36.77;20.44;100505.84;5077236;28;20050;-55
2021/11/09 12:56:25;;;;;;;6.93;4.88;;;;;;;36.39;20.67;100497.00;5076785;28;20044;-55
2021/11/09 12:59:00;;;;;;;6.00;3.78;;;;;;;35.81;20.91;100503.56;5086786;28;20446;-55
2021/11/09 13:07:04;;;;;;;7.28;3.00;;;;;;;32.90;22.30;100489.56;5094645;28;20076;-56
2021/11/09 13:09:55;;;;;;;5.18;2.80;;;;;;;30.53;24.90;100473.63;5087187;28;20483;-56
2021/11/09 13:12:25;;;;;;;5.82;2.72;;;;;;;28.95;26.36;100478.72;5087123;28;20048;-56
2021/11/09 13:14:59;;;;;;;4.45;2.40;;;;;;;27.42;27.67;100484.50;5094726;28;20048;-56
2021/11/09 13:17:44;;;;;;;4.35;2.40;;;;;;;25.85;29.20;100454.06;5077018;28;20135;-56
2021/11/09 13:22:54;;;;;;;4.40;2.50;;;;;;;24.29;31.78;100460.22;5070485;28;20044;-54
2021/11/09 13:25:32;;;;;;;6.32;2.70;;;;;;;23.92;32.30;100450.47;5075731;28;20128;-53
2021/11/09 13:28:03;;;;;;;5.57;2.78;;;;;;;23.84;32.66;100450.31;5064637;28;20084;-56
2021/11/09 13:30:49;;;;;;;7.80;3.28;;;;;;;23.76;33.05;100448.50;5082948;28;20082;-53
2021/11/09 13:33:17;;;;;;;6.53;2.97;;;;;;;23.62;32.96;100440.41;5073853;28;20049;-55
2021/11/09 13:35:46;;;;;;;7.95;3.40;;;;;;;23.52;33.66;100446.69;5073385;28;20076;-56
2021/11/09 13:38:18;;;;;;;9.07;3.65;;;;;;;23.41;34.03;100439.91;5074581;28;20076;-54
2021/11/09 13:40:51;;;;;;;4.88;2.60;;;;;;;23.24;34.25;100440.28;5075685;28;20087;-54
2021/11/09 13:43:24;;;;;;;6.38;2.22;;;;;;;23.02;34.56;100424.69;5083543;28;20535;-55
2021/11/09 13:46:06;;;;;;;3.95;1.90;;;;;;;22.86;34.95;100434.03;5077232;28;20044;-54
2021/11/09 13:48:35;;;;;;;7.13;2.50;;;;;;;22.69;35.24;100435.19;5055717;28;20124;-55
2021/11/09 13:51:05;;;;;;;3.55;2.22;;;;;;;22.60;35.29;100426.03;5070391;28;20464;-55
2021/11/09 13:53:36;;;;;;;5.38;2.45;;;;;;;22.54;35.52;100429.50;5061704;28;20204;-56
2021/11/09 13:56:12;;;;;;;5.82;2.63;;;;;;;22.41;36.15;100423.06;5062308;28;20572;-55
2021/11/09 13:58:40;;;;;;;4.63;2.50;;;;;;;22.44;36.43;100416.63;5072383;28;20516;-57
2021/11/09 14:01:10;;;;;;;7.30;2.65;;;;;;;22.60;36.34;100428.06;5051043;28;20548;-55
2021/11/09 14:04:03;;;;;;;5.10;2.53;;;;;;;22.63;36.26;100422.47;5071928;28;20132;-55
2021/11/09 14:06:50;;;;;;;5.30;2.70;;;;;;;22.37;36.67;100399.38;5069541;28;20151;-56